createdAt,value
2022-09-27T00:00:15.934Z,12.10
2022-09-27T00:02:43.103Z,11.70
2022-09-27T00:05:11.484Z,11.70
2022-09-27T00:07:38.551Z,11.70
2022-09-27T00:10:05.847Z,11.70
2022-09-27T00:12:32.947Z,11.60
2022-09-27T00:15:00.908Z,12.20
2022-09-27T00:17:28.479Z,11.70
2022-09-27T00:19:58.986Z,11.70
2022-09-27T00:22:26.533Z,11.70
2022-09-27T00:24:53.646Z,11.70
2022-09-27T00:27:20.818Z,11.70
2022-09-27T00:29:48.961Z,11.60
2022-09-27T00:32:16.254Z,11.70
2022-09-27T00:34:44.174Z,11.60
2022-09-27T00:37:12.328Z,11.60
2022-09-27T00:39:39.921Z,11.60
2022-09-27T00:42:10.214Z,11.60
2022-09-27T00:44:40.054Z,11.70
2022-09-27T00:47:33.314Z,11.70
2022-09-27T00:50:03.961Z,12.60
2022-09-27T00:52:35.297Z,11.60
2022-09-27T00:55:08.568Z,11.60
2022-09-27T00:57:35.769Z,11.60
2022-09-27T01:00:10.651Z,11.60
2022-09-27T01:02:39.414Z,12.00
2022-09-27T01:05:10.283Z,11.70
2022-09-27T01:07:37.893Z,11.60
2022-09-27T01:10:05.538Z,11.60
2022-09-27T01:12:32.579Z,11.60
2022-09-27T01:15:13.863Z,11.60
2022-09-27T01:17:46.957Z,11.50
2022-09-27T01:20:19.849Z,11.50
2022-09-27T01:23:05.306Z,11.50
2022-09-27T01:25:42.518Z,12.20
2022-09-27T01:28:28.425Z,11.50
2022-09-27T01:31:17.185Z,11.50
2022-09-27T01:33:51.806Z,11.50
2022-09-27T01:36:32.265Z,11.50
2022-09-27T01:39:20.105Z,11.40
2022-09-27T01:41:52.453Z,11.50
2022-09-27T01:44:27.619Z,11.50
2022-09-27T01:46:56.072Z,12.40
2022-09-27T01:49:26.676Z,11.50
2022-09-27T01:51:58.730Z,11.50
2022-09-27T01:54:30.457Z,11.40
2022-09-27T01:56:58.844Z,11.50
2022-09-27T01:59:29.822Z,12.30
2022-09-27T02:02:00.342Z,11.50
2022-09-27T02:04:30.178Z,11.50
2022-09-27T02:07:02.330Z,11.50
2022-09-27T02:09:35.613Z,11.50
2022-09-27T02:12:05.566Z,11.50
2022-09-27T02:14:35.502Z,11.50
2022-09-27T02:17:11.386Z,11.50
2022-09-27T02:19:38.437Z,11.60
2022-09-27T02:22:11.443Z,12.50
2022-09-27T02:25:01.749Z,11.50
2022-09-27T02:27:28.847Z,11.40
2022-09-27T02:30:02.222Z,11.30
2022-09-27T02:32:29.450Z,11.30
2022-09-27T02:35:01.253Z,11.30
2022-09-27T02:37:28.411Z,11.30
2022-09-27T02:39:55.781Z,11.30
2022-09-27T02:42:22.996Z,11.20
2022-09-27T02:44:50.112Z,11.90
2022-09-27T02:47:20.147Z,11.30
2022-09-27T02:49:58.264Z,11.20
2022-09-27T02:52:28.782Z,11.20
2022-09-27T02:55:03.218Z,11.20
2022-09-27T02:57:56.228Z,11.10
2022-09-27T03:00:53.307Z,11.10
2022-09-27T03:03:38.649Z,11.00
2022-09-27T03:06:11.281Z,11.00
2022-09-27T03:08:38.995Z,10.90
2022-09-27T03:11:06.119Z,11.00
2022-09-27T03:13:45.811Z,10.90
2022-09-27T03:16:21.755Z,10.90
2022-09-27T03:18:48.840Z,10.90
2022-09-27T03:21:15.890Z,10.80
2022-09-27T03:23:43.031Z,10.40
2022-09-27T03:26:12.999Z,10.90
2022-09-27T03:28:40.381Z,10.90
2022-09-27T03:31:07.500Z,10.90
2022-09-27T03:33:34.576Z,10.80
2022-09-27T03:36:01.786Z,10.80
2022-09-27T03:38:29.851Z,10.80
2022-09-27T03:40:59.529Z,10.80
2022-09-27T03:43:26.798Z,10.80
2022-09-27T03:45:53.853Z,10.80
2022-09-27T03:48:25.783Z,10.80
2022-09-27T03:50:54.917Z,10.80
2022-09-27T03:53:21.983Z,10.70
2022-09-27T03:55:49.062Z,10.70
2022-09-27T03:58:16.615Z,10.70
2022-09-27T04:00:45.666Z,10.60
2022-09-27T04:03:13.584Z,10.80
2022-09-27T04:05:40.657Z,10.70
2022-09-27T04:08:07.971Z,10.70
2022-09-27T04:10:36.812Z,10.60
2022-09-27T04:13:04.583Z,10.60
2022-09-27T04:15:31.643Z,10.60
2022-09-27T04:17:58.693Z,10.60
2022-09-27T04:20:25.766Z,10.60
2022-09-27T04:22:52.809Z,10.60
2022-09-27T04:25:19.856Z,10.60
2022-09-27T04:27:47.205Z,10.50
2022-09-27T04:30:15.034Z,10.60
2022-09-27T04:32:42.777Z,10.50
2022-09-27T04:35:28.813Z,10.60
2022-09-27T04:37:56.143Z,10.50
2022-09-27T04:40:23.830Z,10.50
2022-09-27T04:42:51.356Z,10.50
2022-09-27T04:45:19.265Z,10.50
2022-09-27T04:47:47.594Z,10.40
2022-09-27T04:50:15.342Z,10.40
2022-09-27T04:52:42.408Z,10.40
2022-09-27T04:55:10.363Z,10.40
2022-09-27T04:57:37.414Z,10.40
2022-09-27T05:00:05.071Z,10.40
2022-09-27T05:02:41.534Z,10.40
2022-09-27T05:05:09.822Z,10.40
2022-09-27T05:07:40.041Z,10.40
2022-09-27T05:10:07.997Z,10.40
2022-09-27T05:12:35.688Z,10.30
2022-09-27T05:15:03.664Z,10.40
2022-09-27T05:17:30.784Z,10.40
2022-09-27T05:19:57.853Z,10.40
2022-09-27T05:22:25.235Z,10.40
2022-09-27T05:24:52.315Z,10.40
2022-09-27T05:27:20.528Z,10.40
2022-09-27T05:29:48.121Z,10.40
2022-09-27T05:32:15.316Z,10.40
2022-09-27T05:34:42.773Z,10.60
2022-09-27T05:37:10.014Z,10.50
2022-09-27T05:39:37.084Z,10.50
2022-09-27T05:42:05.013Z,9.90
2022-09-27T05:44:32.079Z,10.50
2022-09-27T05:47:05.559Z,10.50
2022-09-27T05:49:33.200Z,10.50
2022-09-27T05:52:00.409Z,11.60
2022-09-27T05:54:29.641Z,10.60
2022-09-27T05:57:00.344Z,10.60
2022-09-27T05:59:27.657Z,10.70
2022-09-27T06:01:55.019Z,10.70
2022-09-27T06:04:22.441Z,10.70
2022-09-27T06:06:49.471Z,10.80
2022-09-27T06:09:17.393Z,10.60
2022-09-27T06:11:45.504Z,10.70
2022-09-27T06:14:13.787Z,10.70
2022-09-27T06:16:40.895Z,10.70
2022-09-27T06:19:08.816Z,10.70
2022-09-27T06:21:36.797Z,10.80
2022-09-27T06:24:04.268Z,11.80
2022-09-27T06:26:31.443Z,10.80
2022-09-27T06:28:58.680Z,10.80
2022-09-27T06:31:25.742Z,10.80
2022-09-27T06:33:53.225Z,10.80
2022-09-27T06:36:20.343Z,10.80
2022-09-27T06:38:49.194Z,10.80
2022-09-27T06:41:16.568Z,10.90
2022-09-27T06:43:44.011Z,10.90
2022-09-27T06:46:11.162Z,10.90
2022-09-27T06:48:39.351Z,11.00
2022-09-27T06:51:07.502Z,10.90
2022-09-27T06:53:34.575Z,11.00
2022-09-27T06:56:03.079Z,11.00
2022-09-27T06:58:48.534Z,11.90
2022-09-27T07:01:15.693Z,11.00
2022-09-27T07:03:45.111Z,11.00
2022-09-27T07:06:18.493Z,11.00
2022-09-27T07:08:45.670Z,11.00
2022-09-27T07:11:12.925Z,11.00
2022-09-27T07:13:43.018Z,11.10
2022-09-27T07:16:13.631Z,11.10
2022-09-27T07:18:41.545Z,11.10
2022-09-27T07:21:08.935Z,11.10
2022-09-27T07:23:37.111Z,11.10
2022-09-27T07:26:04.743Z,10.20
2022-09-27T07:28:32.036Z,11.20
2022-09-27T07:30:59.156Z,11.10
2022-09-27T07:33:26.271Z,12.20
2022-09-27T07:35:53.363Z,11.20
2022-09-27T07:38:20.493Z,11.20
2022-09-27T07:40:47.616Z,11.20
2022-09-27T07:43:14.767Z,11.30
2022-09-27T07:45:41.836Z,11.30
2022-09-27T07:48:11.213Z,11.30
2022-09-27T07:50:38.349Z,11.30
2022-09-27T07:53:05.611Z,11.40
2022-09-27T07:55:33.111Z,11.40
2022-09-27T07:58:04.277Z,11.50
2022-09-27T08:00:31.449Z,11.50
2022-09-27T08:02:58.621Z,11.50
2022-09-27T08:05:26.131Z,11.60
2022-09-27T08:07:57.037Z,12.00
2022-09-27T08:10:27.316Z,11.60
2022-09-27T08:12:55.376Z,11.60
2022-09-27T08:15:22.460Z,11.70
2022-09-27T08:17:50.483Z,11.60
2022-09-27T08:20:17.632Z,11.80
2022-09-27T08:22:45.053Z,11.70
2022-09-27T08:25:12.261Z,11.90
2022-09-27T08:27:39.380Z,11.90
2022-09-27T08:30:06.993Z,11.90
2022-09-27T08:32:34.146Z,11.90
2022-09-27T08:35:01.262Z,11.90
2022-09-27T08:37:28.328Z,11.00
2022-09-27T08:39:55.410Z,11.90
2022-09-27T08:42:37.554Z,12.00
2022-09-27T08:45:11.103Z,12.00
2022-09-27T08:47:43.844Z,12.10
2022-09-27T08:50:16.784Z,12.10
2022-09-27T08:52:56.011Z,12.70
2022-09-27T08:55:38.161Z,13.30
2022-09-27T08:58:12.270Z,12.20
2022-09-27T09:00:39.447Z,13.20
2022-09-27T09:03:10.033Z,12.20
2022-09-27T09:05:45.525Z,12.30
2022-09-27T09:08:15.740Z,12.30
2022-09-27T09:11:09.086Z,11.90
2022-09-27T09:13:54.708Z,12.40
2022-09-27T09:16:24.595Z,12.40
2022-09-27T09:18:57.786Z,12.40
2022-09-27T09:21:40.475Z,12.50
2022-09-27T09:24:14.406Z,12.60
2022-09-27T09:26:57.801Z,12.60
2022-09-27T09:29:33.149Z,12.70
2022-09-27T09:32:09.467Z,12.70
2022-09-27T09:34:46.999Z,12.70
2022-09-27T09:37:19.205Z,12.70
2022-09-27T09:39:53.005Z,12.70
2022-09-27T09:42:25.335Z,12.90
2022-09-27T09:45:07.737Z,12.90
2022-09-27T09:47:38.056Z,12.90
2022-09-27T09:50:17.670Z,13.10
2022-09-27T09:52:50.145Z,12.80
2022-09-27T09:55:22.827Z,12.80
2022-09-27T09:57:56.076Z,12.90
2022-09-27T10:00:23.992Z,13.00
2022-09-27T10:02:52.755Z,13.00
2022-09-27T10:05:21.229Z,13.10
2022-09-27T10:07:50.706Z,13.10
2022-09-27T10:10:18.847Z,13.20
2022-09-27T10:12:48.991Z,13.20
2022-09-27T10:15:18.065Z,13.30
2022-09-27T10:17:47.209Z,13.30
2022-09-27T10:20:22.189Z,13.30
2022-09-27T10:22:54.501Z,13.30
2022-09-27T10:25:21.824Z,13.30
2022-09-27T10:27:50.354Z,13.30
2022-09-27T10:30:33.938Z,13.30
2022-09-27T10:33:05.903Z,13.40
2022-09-27T10:35:36.709Z,13.40
2022-09-27T10:38:21.762Z,13.40
2022-09-27T10:40:49.810Z,12.40
2022-09-27T10:43:49.144Z,13.40
2022-09-27T10:46:26.037Z,13.40
2022-09-27T10:49:31.426Z,13.40
2022-09-27T10:52:03.444Z,13.40
2022-09-27T10:54:34.252Z,13.40
2022-09-27T10:57:05.574Z,13.40
2022-09-27T10:59:40.267Z,13.50
2022-09-27T11:02:19.241Z,13.50
2022-09-27T11:05:03.313Z,13.50
2022-09-27T11:07:35.320Z,13.60
2022-09-27T11:10:05.446Z,13.70
2022-09-27T11:12:35.505Z,13.70
2022-09-27T11:15:03.703Z,13.70
2022-09-27T11:17:35.210Z,13.60
2022-09-27T11:20:11.331Z,13.50
2022-09-27T11:22:48.766Z,13.30
2022-09-27T11:25:20.166Z,13.10
2022-09-27T11:27:50.038Z,12.90
2022-09-27T11:30:20.709Z,12.80
2022-09-27T11:32:53.595Z,12.80
2022-09-27T11:35:35.696Z,12.70
2022-09-27T11:38:02.764Z,12.80
2022-09-27T11:40:32.800Z,12.80
2022-09-27T11:43:13.056Z,13.00
2022-09-27T11:46:14.427Z,13.00
2022-09-27T11:48:37.283Z,13.20
2022-09-27T11:51:07.408Z,13.20
2022-09-27T11:53:40.337Z,13.10
2022-09-27T11:56:07.405Z,13.00
2022-09-27T11:58:34.492Z,13.00
2022-09-27T12:01:01.640Z,12.90
2022-09-27T12:03:38.135Z,12.80
2022-09-27T12:06:08.422Z,12.80
2022-09-27T12:08:43.012Z,12.80
2022-09-27T12:11:19.269Z,12.80
2022-09-27T12:14:04.948Z,12.80
2022-09-27T12:16:32.804Z,12.70
2022-09-27T12:19:01.706Z,13.10
2022-09-27T12:21:30.666Z,12.80
2022-09-27T12:23:58.260Z,12.90
2022-09-27T12:26:35.945Z,13.00
2022-09-27T12:29:12.243Z,13.10
2022-09-27T12:32:08.607Z,13.20
2022-09-27T12:34:41.619Z,13.30
2022-09-27T12:37:14.955Z,14.30
2022-09-27T12:39:46.968Z,13.50
2022-09-27T12:42:19.928Z,13.50
2022-09-27T12:44:50.724Z,13.50
2022-09-27T12:47:28.147Z,13.50
2022-09-27T12:49:58.923Z,13.50
2022-09-27T12:52:31.344Z,13.40
2022-09-27T12:55:09.205Z,13.50
2022-09-27T12:57:54.829Z,13.50
2022-09-27T13:00:26.640Z,13.60
2022-09-27T13:03:25.711Z,13.70
2022-09-27T13:06:12.330Z,13.60
2022-09-27T13:08:58.375Z,13.60
2022-09-27T13:11:28.173Z,13.50
2022-09-27T13:13:55.979Z,13.40
2022-09-27T13:16:25.405Z,13.30
2022-09-27T13:19:05.734Z,13.10
2022-09-27T13:21:53.161Z,13.10
2022-09-27T13:24:49.824Z,13.20
2022-09-27T13:27:26.128Z,13.20
2022-09-27T13:30:08.412Z,13.20
2022-09-27T13:32:36.568Z,13.30
2022-09-27T13:35:11.879Z,13.40
2022-09-27T13:37:44.778Z,13.40
2022-09-27T13:40:21.736Z,13.30
2022-09-27T13:42:55.679Z,13.40
2022-09-27T13:45:43.863Z,14.50
2022-09-27T13:48:18.757Z,13.50
2022-09-27T13:50:48.566Z,13.50
2022-09-27T13:53:20.516Z,13.50
2022-09-27T13:55:48.934Z,13.50
2022-09-27T13:58:16.310Z,13.40
2022-09-27T14:00:45.211Z,13.30
2022-09-27T14:03:12.734Z,13.30
2022-09-27T14:05:41.830Z,13.30
2022-09-27T14:08:20.058Z,13.40
2022-09-27T14:10:47.987Z,13.40
2022-09-27T14:13:18.760Z,14.40
2022-09-27T14:15:46.736Z,13.50
2022-09-27T14:18:16.753Z,13.60
2022-09-27T14:20:45.582Z,13.60
2022-09-27T14:23:21.349Z,13.60
2022-09-27T14:25:49.959Z,13.70
2022-09-27T14:28:21.428Z,13.60
2022-09-27T14:30:48.495Z,13.70
2022-09-27T14:33:31.893Z,13.70
2022-09-27T14:36:21.671Z,13.70
2022-09-27T14:38:50.885Z,13.70
2022-09-27T14:41:17.976Z,13.70
2022-09-27T14:43:46.168Z,13.70
2022-09-27T14:46:29.625Z,13.60
2022-09-27T14:48:56.945Z,13.70
2022-09-27T14:51:28.722Z,13.80
2022-09-27T14:54:01.478Z,13.80
2022-09-27T14:56:32.211Z,13.80
2022-09-27T14:59:13.984Z,12.80
2022-09-27T15:01:48.178Z,13.90
2022-09-27T15:04:18.071Z,14.00
2022-09-27T15:06:50.570Z,14.00
2022-09-27T15:09:18.598Z,14.00
2022-09-27T15:11:48.269Z,13.90
2022-09-27T15:14:17.331Z,13.80
2022-09-27T15:16:46.228Z,13.80
2022-09-27T15:19:18.927Z,13.70
2022-09-27T15:21:46.110Z,13.70
2022-09-27T15:24:31.839Z,13.70
2022-09-27T15:26:58.995Z,13.70
2022-09-27T15:29:26.567Z,13.60
2022-09-27T15:32:02.366Z,13.70
2022-09-27T15:34:30.282Z,13.60
2022-09-27T15:37:03.407Z,13.60
2022-09-27T15:39:37.357Z,13.40
2022-09-27T15:42:05.316Z,13.20
2022-09-27T15:44:50.758Z,13.00
2022-09-27T15:47:34.449Z,12.80
2022-09-27T15:50:16.600Z,12.20
2022-09-27T15:52:44.893Z,12.60
2022-09-27T15:55:12.457Z,12.60
2022-09-27T15:57:39.956Z,12.50
2022-09-27T16:00:07.710Z,13.10
2022-09-27T16:02:36.759Z,12.50
2022-09-27T16:05:04.014Z,12.50
2022-09-27T16:07:31.042Z,12.40
2022-09-27T16:09:58.119Z,12.40
2022-09-27T16:12:26.704Z,11.50
2022-09-27T16:14:53.784Z,12.30
2022-09-27T16:17:20.867Z,12.20
2022-09-27T16:19:48.040Z,12.10
2022-09-27T16:22:15.108Z,12.20
2022-09-27T16:24:42.227Z,11.60
2022-09-27T16:27:09.262Z,12.10
2022-09-27T16:29:36.508Z,12.10
2022-09-27T16:32:04.157Z,12.10
2022-09-27T16:34:31.504Z,12.10
2022-09-27T16:37:02.810Z,12.10
2022-09-27T16:39:31.918Z,12.10
2022-09-27T16:41:59.915Z,12.20
2022-09-27T16:44:27.801Z,12.20
2022-09-27T16:46:56.123Z,12.20
2022-09-27T16:49:41.818Z,12.20
2022-09-27T16:52:11.088Z,12.20
2022-09-27T16:54:38.338Z,12.20
2022-09-27T16:57:05.839Z,12.20
2022-09-27T16:59:32.934Z,12.30
2022-09-27T17:02:00.053Z,12.30
2022-09-27T17:04:41.007Z,12.30
2022-09-27T17:07:09.840Z,12.30
2022-09-27T17:09:37.353Z,12.20
2022-09-27T17:12:07.597Z,12.30
2022-09-27T17:14:36.991Z,12.30
2022-09-27T17:17:04.068Z,12.30
2022-09-27T17:19:32.606Z,11.30
2022-09-27T17:21:59.933Z,12.30
2022-09-27T17:24:27.076Z,12.20
2022-09-27T17:26:55.380Z,12.30
2022-09-27T17:29:22.516Z,12.30
2022-09-27T17:31:50.047Z,12.20
2022-09-27T17:34:17.359Z,12.30
2022-09-27T17:36:48.439Z,12.20
2022-09-27T17:39:17.168Z,12.20
2022-09-27T17:41:44.360Z,12.20
2022-09-27T17:44:13.290Z,12.10
2022-09-27T17:46:40.933Z,12.20
2022-09-27T17:49:28.028Z,12.10
2022-09-27T17:51:55.345Z,12.10
2022-09-27T17:54:23.567Z,12.10
2022-09-27T17:56:50.724Z,12.00
2022-09-27T17:59:18.005Z,12.00
2022-09-27T18:01:45.808Z,12.00
2022-09-27T18:04:14.725Z,12.00
2022-09-27T18:06:43.040Z,12.00
2022-09-27T18:09:11.146Z,12.00
2022-09-27T18:11:38.808Z,12.00
2022-09-27T18:14:06.018Z,12.00
2022-09-27T18:16:36.779Z,12.00
2022-09-27T18:19:04.863Z,11.90
2022-09-27T18:21:32.173Z,11.90
2022-09-27T18:24:00.356Z,11.90
2022-09-27T18:26:28.990Z,11.80
2022-09-27T18:29:00.018Z,11.90
2022-09-27T18:31:28.749Z,11.90
2022-09-27T18:33:55.960Z,11.90
2022-09-27T18:36:25.134Z,12.30
2022-09-27T18:38:53.526Z,11.90
2022-09-27T18:41:22.521Z,11.80
2022-09-27T18:43:52.181Z,11.90
2022-09-27T18:46:35.096Z,11.80
2022-09-27T18:49:25.767Z,11.10
2022-09-27T18:51:54.860Z,11.80
2022-09-27T18:54:22.637Z,11.80
2022-09-27T18:56:50.313Z,12.60
2022-09-27T18:59:21.704Z,11.80
2022-09-27T19:01:48.917Z,11.80
2022-09-27T19:04:26.944Z,11.80
2022-09-27T19:06:56.495Z,11.80
2022-09-27T19:09:26.335Z,11.80
2022-09-27T19:11:53.612Z,11.70
2022-09-27T19:14:21.240Z,11.70
2022-09-27T19:16:48.839Z,11.70
2022-09-27T19:19:16.900Z,11.70
2022-09-27T19:21:44.111Z,11.70
2022-09-27T19:24:11.812Z,11.70
2022-09-27T19:26:38.885Z,11.70
2022-09-27T19:29:06.661Z,11.70
2022-09-27T19:31:35.661Z,11.70
2022-09-27T19:34:03.162Z,11.70
2022-09-27T19:36:30.313Z,11.70
2022-09-27T19:38:59.022Z,11.70
2022-09-27T19:41:26.640Z,11.70
2022-09-27T19:43:54.623Z,11.70
2022-09-27T19:46:22.490Z,11.70
2022-09-27T19:48:50.423Z,11.60
2022-09-27T19:51:18.966Z,11.60
2022-09-27T19:53:46.253Z,11.60
2022-09-27T19:56:13.873Z,11.60
2022-09-27T19:58:42.004Z,11.60
2022-09-27T20:01:10.802Z,11.60
2022-09-27T20:03:39.087Z,11.60
2022-09-27T20:06:07.338Z,11.60
2022-09-27T20:08:34.875Z,11.50
2022-09-27T20:11:06.402Z,12.40
2022-09-27T20:13:34.397Z,11.60
2022-09-27T20:16:02.984Z,11.60
2022-09-27T20:18:30.281Z,11.60
2022-09-27T20:21:01.421Z,11.70
2022-09-27T20:23:29.493Z,12.20
2022-09-27T20:26:00.186Z,11.60
2022-09-27T20:28:27.856Z,11.60
2022-09-27T20:30:57.836Z,11.60
2022-09-27T20:33:44.038Z,11.50
2022-09-27T20:36:14.931Z,11.10
2022-09-27T20:38:46.177Z,11.60
2022-09-27T20:41:14.946Z,11.60
2022-09-27T20:43:42.051Z,10.50
2022-09-27T20:46:13.289Z,11.40
2022-09-27T20:48:40.474Z,11.60
2022-09-27T20:51:08.265Z,11.60
2022-09-27T20:53:35.494Z,11.60
2022-09-27T20:56:02.958Z,11.60
2022-09-27T20:58:31.000Z,11.60
2022-09-27T21:01:04.331Z,11.60
2022-09-27T21:03:31.532Z,11.60
2022-09-27T21:05:58.852Z,11.60
2022-09-27T21:08:28.685Z,11.50
2022-09-27T21:10:55.777Z,11.50
2022-09-27T21:13:22.853Z,11.50
2022-09-27T21:15:49.929Z,11.50
2022-09-27T21:18:19.585Z,11.50
2022-09-27T21:20:56.325Z,11.40
2022-09-27T21:23:23.355Z,12.40
2022-09-27T21:26:00.452Z,11.30
2022-09-27T21:28:31.433Z,11.40
2022-09-27T21:31:01.257Z,11.40
2022-09-27T21:33:28.512Z,11.30
2022-09-27T21:35:55.931Z,10.70
2022-09-27T21:38:23.145Z,11.30
2022-09-27T21:41:01.538Z,11.20
2022-09-27T21:43:30.233Z,11.20
2022-09-27T21:46:08.001Z,11.20
2022-09-27T21:48:36.225Z,11.20
2022-09-27T21:51:05.546Z,11.10
2022-09-27T21:53:33.582Z,11.10
2022-09-27T21:56:00.816Z,11.10
2022-09-27T21:58:27.965Z,11.10
2022-09-27T22:00:55.071Z,11.10
2022-09-27T22:03:22.409Z,11.10
2022-09-27T22:05:50.399Z,11.10
2022-09-27T22:08:18.255Z,11.00
2022-09-27T22:10:46.453Z,11.00
2022-09-27T22:13:13.841Z,11.00
2022-09-27T22:15:40.953Z,10.90
2022-09-27T22:18:08.171Z,11.00
2022-09-27T22:20:35.444Z,11.00
2022-09-27T22:23:02.587Z,11.00
2022-09-27T22:25:31.147Z,11.00
2022-09-27T22:27:58.398Z,11.00
2022-09-27T22:30:26.134Z,11.00
2022-09-27T22:32:53.412Z,10.10
2022-09-27T22:35:21.162Z,10.90
2022-09-27T22:37:48.497Z,10.90
2022-09-27T22:40:15.741Z,10.90
2022-09-27T22:42:42.910Z,10.80
2022-09-27T22:45:10.826Z,10.90
2022-09-27T22:47:37.872Z,10.30
2022-09-27T22:50:05.283Z,10.80
2022-09-27T22:52:32.431Z,10.90
2022-09-27T22:54:59.477Z,10.90
2022-09-27T22:57:26.539Z,10.90
2022-09-27T22:59:53.719Z,10.90
2022-09-27T23:02:20.901Z,10.90
2022-09-27T23:04:49.012Z,10.90
2022-09-27T23:07:16.366Z,10.80
2022-09-27T23:09:43.447Z,10.80
2022-09-27T23:12:10.744Z,10.90
2022-09-27T23:14:42.457Z,10.80
2022-09-27T23:17:09.820Z,10.80
2022-09-27T23:19:37.561Z,10.80
2022-09-27T23:22:05.116Z,10.80
2022-09-27T23:24:32.209Z,10.80
2022-09-27T23:27:17.922Z,10.80
2022-09-27T23:29:46.003Z,10.80
2022-09-27T23:32:13.135Z,10.70
2022-09-27T23:34:41.313Z,10.70
2022-09-27T23:37:08.419Z,10.70
2022-09-27T23:39:35.595Z,10.70
2022-09-27T23:42:03.347Z,10.80
2022-09-27T23:44:31.425Z,11.60
2022-09-27T23:47:00.580Z,10.70
2022-09-27T23:49:28.717Z,10.70
2022-09-27T23:51:55.839Z,10.70
2022-09-27T23:54:22.953Z,10.70
2022-09-27T23:56:50.025Z,10.70
2022-09-27T23:59:17.211Z,10.70
